sensor_id;sensor_type;location;lat;lon;timestamp;pressure;altitude;pressure_sealevel;temperature;humidity
76132;BME280;64877;50.994;13.650;2023-06-10T00:02:19;99413.44;;;17.78;100.00
76132;BME280;64877;50.994;13.650;2023-06-10T00:04:45;99419.94;;;17.77;100.00
76132;BME280;64877;50.994;13.650;2023-06-10T00:07:10;99413.25;;;17.80;100.00
76132;BME280;64877;50.994;13.650;2023-06-10T00:09:36;99414.13;;;17.80;100.00
76132;BME280;64877;50.994;13.650;2023-06-10T00:12:05;99419.09;;;17.77;100.00
76132;BME280;64877;50.994;13.650;2023-06-10T00:14:32;99409.66;;;17.71;100.00
76132;BME280;64877;50.994;13.650;2023-06-10T00:16:58;99416.81;;;17.64;100.00
76132;BME280;64877;50.994;13.650;2023-06-10T00:19:24;99411.00;;;17.59;100.00
76132;BME280;64877;50.994;13.650;2023-06-10T00:21:55;99419.38;;;17.57;100.00
76132;BME280;64877;50.994;13.650;2023-06-10T00:24:21;99420.06;;;17.60;100.00
76132;BME280;64877;50.994;13.650;2023-06-10T00:26:47;99422.47;;;17.63;100.00
76132;BME280;64877;50.994;13.650;2023-06-10T00:29:12;99424.66;;;17.59;100.00
76132;BME280;64877;50.994;13.650;2023-06-10T00:31:39;99422.31;;;17.56;100.00
76132;BME280;64877;50.994;13.650;2023-06-10T00:34:04;99427.06;;;17.54;100.00
76132;BME280;64877;50.994;13.650;2023-06-10T00:36:30;99431.84;;;17.60;100.00
76132;BME280;64877;50.994;13.650;2023-06-10T00:38:56;99437.13;;;17.53;100.00
76132;BME280;64877;50.994;13.650;2023-06-10T00:41:22;99439.19;;;17.51;100.00
76132;BME280;64877;50.994;13.650;2023-06-10T00:43:48;99441.72;;;17.45;100.00
76132;BME280;64877;50.994;13.650;2023-06-10T00:46:13;99436.44;;;17.43;100.00
76132;BME280;64877;50.994;13.650;2023-06-10T00:48:41;99440.38;;;17.41;100.00
76132;BME280;64877;50.994;13.650;2023-06-10T00:51:07;99454.84;;;17.33;100.00
76132;BME280;64877;50.994;13.650;2023-06-10T00:53:35;99454.84;;;17.33;100.00
76132;BME280;64877;50.994;13.650;2023-06-10T00:56:02;99465.25;;;17.29;100.00
76132;BME280;64877;50.994;13.650;2023-06-10T00:58:28;99462.34;;;17.23;100.00
76132;BME280;64877;50.994;13.650;2023-06-10T01:00:53;99462.84;;;17.18;100.00
76132;BME280;64877;50.994;13.650;2023-06-10T01:03:18;99469.31;;;17.17;100.00
76132;BME280;64877;50.994;13.650;2023-06-10T01:05:48;99473.34;;;17.05;100.00
76132;BME280;64877;50.994;13.650;2023-06-10T01:08:37;99472.31;;;16.98;100.00
76132;BME280;64877;50.994;13.650;2023-06-10T01:11:08;99479.25;;;16.84;100.00
76132;BME280;64877;50.994;13.650;2023-06-10T01:13:35;99483.78;;;16.75;100.00
76132;BME280;64877;50.994;13.650;2023-06-10T01:16:01;99485.19;;;16.79;100.00
76132;BME280;64877;50.994;13.650;2023-06-10T01:18:31;99486.38;;;16.77;100.00
76132;BME280;64877;50.994;13.650;2023-06-10T01:20:56;99491.00;;;16.76;100.00
76132;BME280;64877;50.994;13.650;2023-06-10T01:23:22;99487.53;;;16.74;100.00
76132;BME280;64877;50.994;13.650;2023-06-10T01:25:53;99498.47;;;16.74;100.00
76132;BME280;64877;50.994;13.650;2023-06-10T01:28:32;99492.78;;;16.68;100.00
76132;BME280;64877;50.994;13.650;2023-06-10T01:33:51;99499.38;;;16.65;100.00
76132;BME280;64877;50.994;13.650;2023-06-10T01:36:18;99494.09;;;16.64;100.00
76132;BME280;64877;50.994;13.650;2023-06-10T01:38:45;99497.53;;;16.66;100.00
76132;BME280;64877;50.994;13.650;2023-06-10T01:41:13;99498.53;;;16.65;100.00
76132;BME280;64877;50.994;13.650;2023-06-10T01:43:39;99498.03;;;16.61;100.00
76132;BME280;64877;50.994;13.650;2023-06-10T01:46:05;99503.16;;;16.64;100.00
76132;BME280;64877;50.994;13.650;2023-06-10T01:48:32;99496.47;;;16.59;100.00
76132;BME280;64877;50.994;13.650;2023-06-10T01:50:57;99495.97;;;16.63;100.00
76132;BME280;64877;50.994;13.650;2023-06-10T01:53:23;99500.69;;;16.53;100.00
76132;BME280;64877;50.994;13.650;2023-06-10T01:55:48;99503.25;;;16.54;100.00
76132;BME280;64877;50.994;13.650;2023-06-10T01:58:14;99510.28;;;16.57;100.00
76132;BME280;64877;50.994;13.650;2023-06-10T02:00:39;99509.78;;;16.62;100.00
76132;BME280;64877;50.994;13.650;2023-06-10T02:03:05;99516.09;;;16.62;100.00
76132;BME280;64877;50.994;13.650;2023-06-10T02:05:30;99515.72;;;16.57;100.00
76132;BME280;64877;50.994;13.650;2023-06-10T02:07:55;99517.72;;;16.47;100.00
76132;BME280;64877;50.994;13.650;2023-06-10T02:10:21;99516.75;;;16.56;100.00
76132;BME280;64877;50.994;13.650;2023-06-10T02:12:47;99520.81;;;16.52;100.00
76132;BME280;64877;50.994;13.650;2023-06-10T02:15:12;99526.03;;;16.45;100.00
76132;BME280;64877;50.994;13.650;2023-06-10T02:17:37;99525.16;;;16.45;100.00
76132;BME280;64877;50.994;13.650;2023-06-10T02:20:04;99529.78;;;16.44;100.00
76132;BME280;64877;50.994;13.650;2023-06-10T02:22:32;99532.31;;;16.46;100.00
76132;BME280;64877;50.994;13.650;2023-06-10T02:24:58;99533.25;;;16.28;100.00
76132;BME280;64877;50.994;13.650;2023-06-10T02:27:23;99531.91;;;16.33;100.00
76132;BME280;64877;50.994;13.650;2023-06-10T02:29:49;99533.06;;;16.30;100.00
76132;BME280;64877;50.994;13.650;2023-06-10T02:32:15;99538.31;;;16.23;100.00
76132;BME280;64877;50.994;13.650;2023-06-10T02:34:40;99531.47;;;16.19;100.00
76132;BME280;64877;50.994;13.650;2023-06-10T02:37:08;99538.09;;;16.17;100.00
76132;BME280;64877;50.994;13.650;2023-06-10T02:39:34;99537.94;;;16.18;100.00
76132;BME280;64877;50.994;13.650;2023-06-10T02:41:59;99540.97;;;16.15;100.00
76132;BME280;64877;50.994;13.650;2023-06-10T02:44:25;99535.94;;;16.02;100.00
76132;BME280;64877;50.994;13.650;2023-06-10T02:46:50;99536.41;;;15.98;100.00
76132;BME280;64877;50.994;13.650;2023-06-10T02:49:15;99539.03;;;15.90;100.00
76132;BME280;64877;50.994;13.650;2023-06-10T02:51:41;99534.53;;;15.81;100.00
76132;BME280;64877;50.994;13.650;2023-06-10T02:54:06;99529.41;;;15.77;100.00
76132;BME280;64877;50.994;13.650;2023-06-10T02:56:32;99529.78;;;15.83;100.00
76132;BME280;64877;50.994;13.650;2023-06-10T02:58:58;99524.00;;;15.86;100.00
76132;BME280;64877;50.994;13.650;2023-06-10T03:01:23;99531.13;;;15.79;100.00
76132;BME280;64877;50.994;13.650;2023-06-10T03:03:49;99534.84;;;15.77;100.00
76132;BME280;64877;50.994;13.650;2023-06-10T03:06:15;99519.06;;;15.63;100.00
76132;BME280;64877;50.994;13.650;2023-06-10T03:08:41;99527.47;;;15.60;100.00
76132;BME280;64877;50.994;13.650;2023-06-10T03:11:06;99527.31;;;15.71;100.00
76132;BME280;64877;50.994;13.650;2023-06-10T03:13:32;99527.59;;;15.68;100.00
76132;BME280;64877;50.994;13.650;2023-06-10T03:15:57;99539.44;;;15.77;100.00
76132;BME280;64877;50.994;13.650;2023-06-10T03:18:26;99536.94;;;15.84;100.00
76132;BME280;64877;50.994;13.650;2023-06-10T03:20:52;99541.72;;;15.82;100.00
76132;BME280;64877;50.994;13.650;2023-06-10T03:23:17;99542.56;;;15.82;100.00
76132;BME280;64877;50.994;13.650;2023-06-10T03:25:44;99534.59;;;15.89;100.00
76132;BME280;64877;50.994;13.650;2023-06-10T03:28:09;99540.69;;;15.83;100.00
76132;BME280;64877;50.994;13.650;2023-06-10T03:30:35;99535.88;;;15.76;100.00
76132;BME280;64877;50.994;13.650;2023-06-10T03:33:00;99539.28;;;15.79;100.00
76132;BME280;64877;50.994;13.650;2023-06-10T03:35:26;99552.34;;;15.75;100.00
76132;BME280;64877;50.994;13.650;2023-06-10T03:37:51;99543.66;;;15.71;100.00
76132;BME280;64877;50.994;13.650;2023-06-10T03:40:17;99544.56;;;15.80;100.00
76132;BME280;64877;50.994;13.650;2023-06-10T03:42:42;99539.84;;;15.82;100.00
76132;BME280;64877;50.994;13.650;2023-06-10T03:45:09;99543.06;;;15.86;100.00
76132;BME280;64877;50.994;13.650;2023-06-10T03:47:36;99543.81;;;15.88;100.00
76132;BME280;64877;50.994;13.650;2023-06-10T03:50:03;99545.97;;;15.84;100.00
76132;BME280;64877;50.994;13.650;2023-06-10T03:52:28;99551.59;;;15.83;100.00
76132;BME280;64877;50.994;13.650;2023-06-10T03:54:54;99556.94;;;15.74;100.00
76132;BME280;64877;50.994;13.650;2023-06-10T03:57:19;99553.84;;;15.87;100.00
76132;BME280;64877;50.994;13.650;2023-06-10T03:59:45;99556.41;;;15.89;100.00
76132;BME280;64877;50.994;13.650;2023-06-10T04:02:10;99550.03;;;15.98;100.00
76132;BME280;64877;50.994;13.650;2023-06-10T04:04:36;99559.13;;;16.07;100.00
76132;BME280;64877;50.994;13.650;2023-06-10T04:07:03;99555.84;;;16.03;100.00
76132;BME280;64877;50.994;13.650;2023-06-10T04:09:29;99559.44;;;16.03;100.00
76132;BME280;64877;50.994;13.650;2023-06-10T04:11:54;99564.41;;;16.08;100.00
76132;BME280;64877;50.994;13.650;2023-06-10T04:14:19;99560.19;;;16.14;100.00
76132;BME280;64877;50.994;13.650;2023-06-10T04:16:45;99569.44;;;16.21;100.00
76132;BME280;64877;50.994;13.650;2023-06-10T04:19:10;99562.75;;;16.15;100.00
76132;BME280;64877;50.994;13.650;2023-06-10T04:21:36;99560.66;;;16.27;100.00
76132;BME280;64877;50.994;13.650;2023-06-10T04:24:01;99572.81;;;16.33;100.00
76132;BME280;64877;50.994;13.650;2023-06-10T04:26:27;99571.22;;;16.30;100.00
76132;BME280;64877;50.994;13.650;2023-06-10T04:28:53;99571.78;;;16.34;100.00
76132;BME280;64877;50.994;13.650;2023-06-10T04:31:18;99570.13;;;16.41;100.00
76132;BME280;64877;50.994;13.650;2023-06-10T04:33:43;99566.22;;;16.87;100.00
76132;BME280;64877;50.994;13.650;2023-06-10T04:36:09;99571.69;;;17.21;100.00
76132;BME280;64877;50.994;13.650;2023-06-10T04:38:34;99567.47;;;17.77;100.00
76132;BME280;64877;50.994;13.650;2023-06-10T04:40:59;99562.19;;;18.25;100.00
76132;BME280;64877;50.994;13.650;2023-06-10T04:43:25;99563.22;;;18.56;100.00
76132;BME280;64877;50.994;13.650;2023-06-10T04:45:50;99568.47;;;18.99;100.00
76132;BME280;64877;50.994;13.650;2023-06-10T04:48:15;99561.97;;;19.39;100.00
76132;BME280;64877;50.994;13.650;2023-06-10T04:50:41;99565.28;;;19.34;99.02
76132;BME280;64877;50.994;13.650;2023-06-10T04:53:06;99557.75;;;19.68;95.80
76132;BME280;64877;50.994;13.650;2023-06-10T04:55:32;99551.81;;;19.87;94.63
76132;BME280;64877;50.994;13.650;2023-06-10T04:57:59;99557.31;;;20.10;91.88
76132;BME280;64877;50.994;13.650;2023-06-10T05:00:24;99555.69;;;20.38;89.95
76132;BME280;64877;50.994;13.650;2023-06-10T05:02:50;99553.72;;;20.70;87.06
76132;BME280;64877;50.994;13.650;2023-06-10T05:05:17;99556.22;;;20.80;87.62
76132;BME280;64877;50.994;13.650;2023-06-10T05:07:43;99550.72;;;20.95;84.36
76132;BME280;64877;50.994;13.650;2023-06-10T05:10:08;99554.88;;;21.20;84.08
76132;BME280;64877;50.994;13.650;2023-06-10T05:12:34;99558.69;;;21.19;84.76
76132;BME280;64877;50.994;13.650;2023-06-10T05:14:59;99557.25;;;21.38;83.13
76132;BME280;64877;50.994;13.650;2023-06-10T05:17:25;99560.50;;;21.78;81.96
76132;BME280;64877;50.994;13.650;2023-06-10T05:19:51;99557.44;;;21.87;81.35
76132;BME280;64877;50.994;13.650;2023-06-10T05:22:16;99563.09;;;22.01;81.99
76132;BME280;64877;50.994;13.650;2023-06-10T05:24:43;99564.19;;;22.21;79.37
76132;BME280;64877;50.994;13.650;2023-06-10T05:27:09;99565.47;;;22.04;80.29
76132;BME280;64877;50.994;13.650;2023-06-10T05:29:35;99564.78;;;22.38;78.44
76132;BME280;64877;50.994;13.650;2023-06-10T05:32:01;99563.38;;;22.49;78.68
76132;BME280;64877;50.994;13.650;2023-06-10T05:34:30;99561.41;;;22.42;78.36
76132;BME280;64877;50.994;13.650;2023-06-10T05:36:56;99563.72;;;22.39;77.92
76132;BME280;64877;50.994;13.650;2023-06-10T05:39:21;99567.00;;;21.91;80.98
76132;BME280;64877;50.994;13.650;2023-06-10T05:41:46;99568.91;;;21.55;82.68
76132;BME280;64877;50.994;13.650;2023-06-10T05:44:12;99572.50;;;21.55;83.17
76132;BME280;64877;50.994;13.650;2023-06-10T05:46:37;99574.19;;;21.27;85.13
76132;BME280;64877;50.994;13.650;2023-06-10T05:49:03;99572.69;;;20.95;86.91
76132;BME280;64877;50.994;13.650;2023-06-10T05:51:28;99573.34;;;20.82;88.65
76132;BME280;64877;50.994;13.650;2023-06-10T05:53:54;99578.94;;;20.88;87.20
76132;BME280;64877;50.994;13.650;2023-06-10T05:58:44;99577.44;;;21.01;85.23
76132;BME280;64877;50.994;13.650;2023-06-10T06:01:10;99572.31;;;21.12;82.82
76132;BME280;64877;50.994;13.650;2023-06-10T06:03:35;99580.75;;;21.26;86.18
76132;BME280;64877;50.994;13.650;2023-06-10T06:06:00;99579.50;;;21.58;82.83
76132;BME280;64877;50.994;13.650;2023-06-10T06:08:26;99579.91;;;22.27;83.37
76132;BME280;64877;50.994;13.650;2023-06-10T06:10:51;99575.03;;;22.51;78.02
76132;BME280;64877;50.994;13.650;2023-06-10T06:13:17;99573.72;;;23.24;76.62
76132;BME280;64877;50.994;13.650;2023-06-10T06:15:42;99572.75;;;23.45;73.61
76132;BME280;64877;50.994;13.650;2023-06-10T06:18:07;99571.88;;;23.79;70.00
76132;BME280;64877;50.994;13.650;2023-06-10T06:20:33;99574.91;;;23.97;67.04
76132;BME280;64877;50.994;13.650;2023-06-10T06:22:58;99565.41;;;24.27;68.32
76132;BME280;64877;50.994;13.650;2023-06-10T06:25:24;99569.72;;;24.56;66.61
76132;BME280;64877;50.994;13.650;2023-06-10T06:27:49;99573.09;;;24.71;65.17
76132;BME280;64877;50.994;13.650;2023-06-10T06:30:15;99572.69;;;24.87;63.61
76132;BME280;64877;50.994;13.650;2023-06-10T06:32:40;99575.22;;;24.75;63.01
76132;BME280;64877;50.994;13.650;2023-06-10T06:35:06;99582.88;;;24.93;64.48
76132;BME280;64877;50.994;13.650;2023-06-10T06:37:33;99586.72;;;25.12;63.12
76132;BME280;64877;50.994;13.650;2023-06-10T06:39:58;99584.13;;;25.04;61.62
76132;BME280;64877;50.994;13.650;2023-06-10T06:42:24;99581.59;;;25.22;60.48
76132;BME280;64877;50.994;13.650;2023-06-10T06:44:49;99580.63;;;25.62;60.13
76132;BME280;64877;50.994;13.650;2023-06-10T06:47:15;99584.38;;;25.87;58.27
76132;BME280;64877;50.994;13.650;2023-06-10T06:49:43;99590.94;;;25.93;59.20
76132;BME280;64877;50.994;13.650;2023-06-10T06:52:08;99590.50;;;25.31;59.35
76132;BME280;64877;50.994;13.650;2023-06-10T06:54:33;99589.19;;;25.40;60.57
76132;BME280;64877;50.994;13.650;2023-06-10T06:56:59;99595.41;;;25.02;60.77
76132;BME280;64877;50.994;13.650;2023-06-10T06:59:24;99600.97;;;24.63;64.71
76132;BME280;64877;50.994;13.650;2023-06-10T07:01:50;99605.41;;;24.84;62.97
76132;BME280;64877;50.994;13.650;2023-06-10T07:04:16;99604.53;;;24.50;64.45
76132;BME280;64877;50.994;13.650;2023-06-10T07:06:41;99612.81;;;24.37;64.38
76132;BME280;64877;50.994;13.650;2023-06-10T07:09:07;99614.19;;;24.06;66.19
76132;BME280;64877;50.994;13.650;2023-06-10T07:11:34;99613.03;;;23.74;67.65
76132;BME280;64877;50.994;13.650;2023-06-10T07:13:59;99622.00;;;23.96;66.37
76132;BME280;64877;50.994;13.650;2023-06-10T07:16:25;99619.69;;;23.99;66.87
76132;BME280;64877;50.994;13.650;2023-06-10T07:18:50;99626.44;;;23.90;67.32
76132;BME280;64877;50.994;13.650;2023-06-10T07:21:15;99627.13;;;23.99;67.10
76132;BME280;64877;50.994;13.650;2023-06-10T07:23:44;99621.13;;;23.89;67.50
76132;BME280;64877;50.994;13.650;2023-06-10T07:26:10;99627.47;;;24.50;65.27
76132;BME280;64877;50.994;13.650;2023-06-10T07:28:37;99622.84;;;24.64;62.38
76132;BME280;64877;50.994;13.650;2023-06-10T07:31:03;99626.88;;;24.62;63.58
76132;BME280;64877;50.994;13.650;2023-06-10T07:33:28;99625.31;;;24.33;64.55
76132;BME280;64877;50.994;13.650;2023-06-10T07:35:54;99638.56;;;23.96;66.58
76132;BME280;64877;50.994;13.650;2023-06-10T07:38:19;99642.88;;;23.64;68.47
76132;BME280;64877;50.994;13.650;2023-06-10T07:40:45;99646.22;;;23.25;70.45
76132;BME280;64877;50.994;13.650;2023-06-10T07:43:11;99653.47;;;23.04;72.25
76132;BME280;64877;50.994;13.650;2023-06-10T07:45:36;99651.31;;;23.00;74.59
76132;BME280;64877;50.994;13.650;2023-06-10T07:48:01;99650.81;;;22.89;73.98
76132;BME280;64877;50.994;13.650;2023-06-10T07:50:27;99647.09;;;22.82;74.69
76132;BME280;64877;50.994;13.650;2023-06-10T07:52:52;99650.09;;;22.59;77.28
76132;BME280;64877;50.994;13.650;2023-06-10T07:55:17;99658.00;;;22.48;77.22
76132;BME280;64877;50.994;13.650;2023-06-10T07:57:43;99648.47;;;22.43;76.66
76132;BME280;64877;50.994;13.650;2023-06-10T08:00:09;99652.38;;;22.34;77.92
76132;BME280;64877;50.994;13.650;2023-06-10T08:02:34;99657.69;;;22.36;78.29
76132;BME280;64877;50.994;13.650;2023-06-10T08:04:59;99661.00;;;22.31;78.85
76132;BME280;64877;50.994;13.650;2023-06-10T08:07:25;99661.53;;;22.20;79.44
76132;BME280;64877;50.994;13.650;2023-06-10T08:09:50;99662.38;;;22.06;79.28
76132;BME280;64877;50.994;13.650;2023-06-10T08:12:16;99660.75;;;22.26;80.28
76132;BME280;64877;50.994;13.650;2023-06-10T08:14:41;99657.78;;;22.28;88.26
76132;BME280;64877;50.994;13.650;2023-06-10T08:17:07;99663.25;;;22.42;90.84
76132;BME280;64877;50.994;13.650;2023-06-10T08:19:32;99659.72;;;22.91;83.12
76132;BME280;64877;50.994;13.650;2023-06-10T08:21:57;99663.69;;;22.67;86.25
76132;BME280;64877;50.994;13.650;2023-06-10T08:24:23;99668.44;;;22.74;87.93
76132;BME280;64877;50.994;13.650;2023-06-10T08:26:48;99671.97;;;22.46;92.06
76132;BME280;64877;50.994;13.650;2023-06-10T08:29:14;99675.72;;;22.60;85.05
76132;BME280;64877;50.994;13.650;2023-06-10T08:31:43;99675.78;;;22.88;84.15
76132;BME280;64877;50.994;13.650;2023-06-10T08:34:09;99669.16;;;23.04;83.02
76132;BME280;64877;50.994;13.650;2023-06-10T08:36:35;99681.00;;;22.98;85.92
76132;BME280;64877;50.994;13.650;2023-06-10T08:39:01;99663.69;;;23.38;80.66
76132;BME280;64877;50.994;13.650;2023-06-10T08:41:28;99674.56;;;23.81;82.44
76132;BME280;64877;50.994;13.650;2023-06-10T08:44:08;99668.06;;;23.95;77.14
76132;BME280;64877;50.994;13.650;2023-06-10T08:46:34;99658.78;;;24.10;75.73
76132;BME280;64877;50.994;13.650;2023-06-10T08:49:05;99653.19;;;24.38;78.59
76132;BME280;64877;50.994;13.650;2023-06-10T08:51:34;99655.84;;;24.24;83.43
76132;BME280;64877;50.994;13.650;2023-06-10T08:54:12;99653.09;;;24.31;82.85
76132;BME280;64877;50.994;13.650;2023-06-10T08:56:40;99646.84;;;24.57;76.59
76132;BME280;64877;50.994;13.650;2023-06-10T08:59:08;99642.13;;;24.44;78.27
76132;BME280;64877;50.994;13.650;2023-06-10T09:01:34;99650.56;;;24.23;83.57
76132;BME280;64877;50.994;13.650;2023-06-10T09:04:00;99658.84;;;24.23;85.56
76132;BME280;64877;50.994;13.650;2023-06-10T09:06:26;99646.63;;;24.52;77.02
76132;BME280;64877;50.994;13.650;2023-06-10T09:08:52;99643.22;;;24.70;71.14
76132;BME280;64877;50.994;13.650;2023-06-10T09:11:18;99646.22;;;24.75;79.21
76132;BME280;64877;50.994;13.650;2023-06-10T09:13:43;99641.31;;;24.64;74.71
76132;BME280;64877;50.994;13.650;2023-06-10T09:16:09;99646.63;;;24.59;71.61
76132;BME280;64877;50.994;13.650;2023-06-10T09:18:37;99639.41;;;24.71;67.84
76132;BME280;64877;50.994;13.650;2023-06-10T09:21:02;99643.56;;;24.34;79.78
76132;BME280;64877;50.994;13.650;2023-06-10T09:23:28;99642.63;;;24.00;83.05
76132;BME280;64877;50.994;13.650;2023-06-10T09:25:57;99645.88;;;23.69;83.99
76132;BME280;64877;50.994;13.650;2023-06-10T09:28:23;99644.03;;;23.48;84.23
76132;BME280;64877;50.994;13.650;2023-06-10T09:30:49;99640.69;;;23.59;75.11
76132;BME280;64877;50.994;13.650;2023-06-10T09:33:15;99642.16;;;23.55;83.63
76132;BME280;64877;50.994;13.650;2023-06-10T09:35:49;99641.22;;;23.69;80.79
76132;BME280;64877;50.994;13.650;2023-06-10T09:38:21;99636.09;;;23.66;78.87
76132;BME280;64877;50.994;13.650;2023-06-10T09:40:51;99638.91;;;23.73;81.64
76132;BME280;64877;50.994;13.650;2023-06-10T09:43:17;99635.47;;;23.71;78.89
76132;BME280;64877;50.994;13.650;2023-06-10T09:45:43;99652.69;;;23.73;80.43
76132;BME280;64877;50.994;13.650;2023-06-10T09:48:09;99639.50;;;23.68;84.44
76132;BME280;64877;50.994;13.650;2023-06-10T09:50:37;99645.47;;;23.72;83.48
76132;BME280;64877;50.994;13.650;2023-06-10T09:53:06;99641.59;;;23.66;83.27
76132;BME280;64877;50.994;13.650;2023-06-10T09:55:33;99654.41;;;23.81;72.97
76132;BME280;64877;50.994;13.650;2023-06-10T09:57:58;99653.31;;;23.75;82.63
76132;BME280;64877;50.994;13.650;2023-06-10T10:00:24;99650.31;;;23.63;78.09
76132;BME280;64877;50.994;13.650;2023-06-10T10:02:51;99649.38;;;23.56;77.14
76132;BME280;64877;50.994;13.650;2023-06-10T10:05:17;99646.66;;;23.63;74.33
76132;BME280;64877;50.994;13.650;2023-06-10T10:07:44;99651.22;;;23.77;72.86
76132;BME280;64877;50.994;13.650;2023-06-10T10:10:11;99652.50;;;23.81;75.63
76132;BME280;64877;50.994;13.650;2023-06-10T10:12:40;99652.13;;;23.91;74.63
76132;BME280;64877;50.994;13.650;2023-06-10T10:15:11;99647.97;;;24.15;72.08
76132;BME280;64877;50.994;13.650;2023-06-10T10:20:13;99651.56;;;24.02;69.32
76132;BME280;64877;50.994;13.650;2023-06-10T10:22:41;99649.22;;;24.06;70.50
76132;BME280;64877;50.994;13.650;2023-06-10T10:25:11;99653.63;;;23.93;69.39
76132;BME280;64877;50.994;13.650;2023-06-10T10:30:14;99654.03;;;23.90;71.68
76132;BME280;64877;50.994;13.650;2023-06-10T10:33:04;99650.81;;;23.87;73.69
76132;BME280;64877;50.994;13.650;2023-06-10T10:35:31;99645.13;;;23.88;71.54
76132;BME280;64877;50.994;13.650;2023-06-10T10:37:58;99645.56;;;23.92;75.32
76132;BME280;64877;50.994;13.650;2023-06-10T10:40:24;99637.94;;;24.01;70.53
76132;BME280;64877;50.994;13.650;2023-06-10T10:42:51;99639.69;;;24.08;71.54
76132;BME280;64877;50.994;13.650;2023-06-10T10:45:17;99634.78;;;24.04;69.62
76132;BME280;64877;50.994;13.650;2023-06-10T10:47:45;99631.16;;;24.03;71.28
76132;BME280;64877;50.994;13.650;2023-06-10T10:50:16;99637.09;;;24.00;70.80
76132;BME280;64877;50.994;13.650;2023-06-10T10:52:54;99642.16;;;23.96;71.43
76132;BME280;64877;50.994;13.650;2023-06-10T10:55:21;99633.09;;;24.16;70.09
76132;BME280;64877;50.994;13.650;2023-06-10T10:58:07;99634.84;;;24.17;69.73
76132;BME280;64877;50.994;13.650;2023-06-10T11:00:35;99625.50;;;24.18;71.18
76132;BME280;64877;50.994;13.650;2023-06-10T11:05:38;99627.75;;;23.94;66.35
76132;BME280;64877;50.994;13.650;2023-06-10T11:08:04;99631.13;;;23.90;70.25
76132;BME280;64877;50.994;13.650;2023-06-10T11:10:39;99624.13;;;23.94;72.31
76132;BME280;64877;50.994;13.650;2023-06-10T11:13:22;99627.75;;;23.94;72.74
76132;BME280;64877;50.994;13.650;2023-06-10T11:15:49;99624.81;;;24.03;68.79
76132;BME280;64877;50.994;13.650;2023-06-10T11:29:02;99594.69;;;24.14;64.31
76132;BME280;64877;50.994;13.650;2023-06-10T11:31:30;99595.31;;;24.16;68.29
76132;BME280;64877;50.994;13.650;2023-06-10T11:33:58;99592.38;;;24.31;63.09
76132;BME280;64877;50.994;13.650;2023-06-10T11:36:27;99591.81;;;24.42;60.38
76132;BME280;64877;50.994;13.650;2023-06-10T11:38:58;99579.06;;;24.68;58.65
76132;BME280;64877;50.994;13.650;2023-06-10T11:41:24;99586.06;;;24.90;58.32
76132;BME280;64877;50.994;13.650;2023-06-10T11:43:52;99575.22;;;24.95;59.17
76132;BME280;64877;50.994;13.650;2023-06-10T11:46:17;99588.44;;;25.07;57.00
76132;BME280;64877;50.994;13.650;2023-06-10T11:51:15;99579.91;;;24.88;58.86
76132;BME280;64877;50.994;13.650;2023-06-10T11:53:43;99582.66;;;24.88;58.59
76132;BME280;64877;50.994;13.650;2023-06-10T11:56:09;99582.66;;;24.88;58.75
76132;BME280;64877;50.994;13.650;2023-06-10T11:58:34;99576.50;;;24.99;58.77
76132;BME280;64877;50.994;13.650;2023-06-10T12:01:00;99580.31;;;24.85;58.14
76132;BME280;64877;50.994;13.650;2023-06-10T12:03:26;99578.63;;;24.71;58.56
76132;BME280;64877;50.994;13.650;2023-06-10T12:06:05;99588.41;;;24.73;58.31
76132;BME280;64877;50.994;13.650;2023-06-10T12:08:32;99578.63;;;24.71;57.38
76132;BME280;64877;50.994;13.650;2023-06-10T12:10:58;99571.00;;;24.73;57.23
76132;BME280;64877;50.994;13.650;2023-06-10T12:13:27;99574.38;;;24.75;59.05
76132;BME280;64877;50.994;13.650;2023-06-10T12:15:53;99580.13;;;24.73;58.20
76132;BME280;64877;50.994;13.650;2023-06-10T12:18:19;99570.78;;;24.74;57.70
76132;BME280;64877;50.994;13.650;2023-06-10T12:20:45;99568.88;;;24.68;58.50
76132;BME280;64877;50.994;13.650;2023-06-10T12:23:12;99566.75;;;24.77;57.11
76132;BME280;64877;50.994;13.650;2023-06-10T12:25:39;99567.38;;;24.79;55.30
76132;BME280;64877;50.994;13.650;2023-06-10T12:28:05;99559.28;;;24.71;54.58
76132;BME280;64877;50.994;13.650;2023-06-10T12:30:32;99564.41;;;24.74;55.44
76132;BME280;64877;50.994;13.650;2023-06-10T12:32:58;99554.84;;;24.83;53.61
76132;BME280;64877;50.994;13.650;2023-06-10T12:35:27;99544.44;;;24.79;52.76
76132;BME280;64877;50.994;13.650;2023-06-10T12:37:57;99552.91;;;24.84;52.87
76132;BME280;64877;50.994;13.650;2023-06-10T12:40:28;99547.81;;;24.94;53.72
76132;BME280;64877;50.994;13.650;2023-06-10T12:42:55;99536.53;;;24.95;52.97
76132;BME280;64877;50.994;13.650;2023-06-10T12:45:31;99535.22;;;25.05;51.78
76132;BME280;64877;50.994;13.650;2023-06-10T12:48:31;99535.91;;;25.07;51.71
76132;BME280;64877;50.994;13.650;2023-06-10T12:50:57;99536.75;;;25.07;51.81
76132;BME280;64877;50.994;13.650;2023-06-10T12:53:24;99542.69;;;25.11;52.06
76132;BME280;64877;50.994;13.650;2023-06-10T12:55:53;99556.72;;;25.09;52.25
76132;BME280;64877;50.994;13.650;2023-06-10T12:58:20;99549.28;;;25.10;50.64
76132;BME280;64877;50.994;13.650;2023-06-10T13:00:47;99541.66;;;25.12;50.31
76132;BME280;64877;50.994;13.650;2023-06-10T13:03:15;99542.91;;;25.09;49.77
76132;BME280;64877;50.994;13.650;2023-06-10T13:05:41;99537.34;;;25.16;49.96
76132;BME280;64877;50.994;13.650;2023-06-10T13:08:10;99543.72;;;25.23;48.01
76132;BME280;64877;50.994;13.650;2023-06-10T13:10:36;99545.44;;;25.24;46.39